sensor_id;sensor_type;location;lat;lon;timestamp;P1;durP1;ratioP1;P2;durP2;ratioP2
8333;SDS011;4204;43.004;23.052;2022-09-03T00:01:52;11.87;;;7.50;;
8333;SDS011;4204;43.004;23.052;2022-09-03T00:04:27;9.13;;;6.97;;
8333;SDS011;4204;43.004;23.052;2022-09-03T00:07:04;10.93;;;7.33;;
8333;SDS011;4204;43.004;23.052;2022-09-03T00:09:38;9.63;;;7.30;;
8333;SDS011;4204;43.004;23.052;2022-09-03T00:12:12;11.57;;;7.57;;
8333;SDS011;4204;43.004;23.052;2022-09-03T00:14:46;12.17;;;8.20;;
8333;SDS011;4204;43.004;23.052;2022-09-03T00:17:18;11.10;;;6.90;;
8333;SDS011;4204;43.004;23.052;2022-09-03T00:19:53;9.20;;;7.40;;
8333;SDS011;4204;43.004;23.052;2022-09-03T00:22:26;9.33;;;7.10;;
8333;SDS011;4204;43.004;23.052;2022-09-03T00:24:58;9.83;;;7.43;;
8333;SDS011;4204;43.004;23.052;2022-09-03T00:27:29;9.20;;;7.07;;
8333;SDS011;4204;43.004;23.052;2022-09-03T00:30:00;12.23;;;7.33;;
8333;SDS011;4204;43.004;23.052;2022-09-03T00:35:22;10.60;;;7.27;;
8333;SDS011;4204;43.004;23.052;2022-09-03T00:37:53;9.03;;;6.80;;
8333;SDS011;4204;43.004;23.052;2022-09-03T00:40:31;9.27;;;7.17;;
8333;SDS011;4204;43.004;23.052;2022-09-03T00:43:08;9.00;;;6.73;;
8333;SDS011;4204;43.004;23.052;2022-09-03T00:45:50;9.97;;;6.67;;
8333;SDS011;4204;43.004;23.052;2022-09-03T00:48:32;9.50;;;7.17;;
8333;SDS011;4204;43.004;23.052;2022-09-03T00:51:15;8.87;;;6.93;;
8333;SDS011;4204;43.004;23.052;2022-09-03T00:53:54;10.80;;;7.17;;
8333;SDS011;4204;43.004;23.052;2022-09-03T00:56:31;10.60;;;7.80;;
8333;SDS011;4204;43.004;23.052;2022-09-03T00:59:08;8.87;;;6.80;;
8333;SDS011;4204;43.004;23.052;2022-09-03T01:01:47;9.90;;;7.63;;
8333;SDS011;4204;43.004;23.052;2022-09-03T01:04:32;9.77;;;7.10;;
8333;SDS011;4204;43.004;23.052;2022-09-03T01:07:11;12.17;;;8.10;;
8333;SDS011;4204;43.004;23.052;2022-09-03T01:09:47;11.23;;;7.70;;
8333;SDS011;4204;43.004;23.052;2022-09-03T01:12:23;9.30;;;7.27;;
8333;SDS011;4204;43.004;23.052;2022-09-03T01:15:03;9.60;;;7.20;;
8333;SDS011;4204;43.004;23.052;2022-09-03T01:17:41;10.03;;;7.10;;
8333;SDS011;4204;43.004;23.052;2022-09-03T01:20:22;9.80;;;7.27;;
8333;SDS011;4204;43.004;23.052;2022-09-03T01:23:24;9.57;;;6.77;;
8333;SDS011;4204;43.004;23.052;2022-09-03T01:26:26;13.23;;;7.97;;
8333;SDS011;4204;43.004;23.052;2022-09-03T01:29:11;10.57;;;7.23;;
8333;SDS011;4204;43.004;23.052;2022-09-03T01:31:49;10.97;;;7.63;;
8333;SDS011;4204;43.004;23.052;2022-09-03T01:34:30;13.03;;;8.20;;
8333;SDS011;4204;43.004;23.052;2022-09-03T01:37:07;11.83;;;8.07;;
8333;SDS011;4204;43.004;23.052;2022-09-03T01:39:44;11.93;;;7.93;;
8333;SDS011;4204;43.004;23.052;2022-09-03T01:42:22;10.77;;;7.83;;
8333;SDS011;4204;43.004;23.052;2022-09-03T01:45:12;9.83;;;7.53;;
8333;SDS011;4204;43.004;23.052;2022-09-03T01:47:52;12.70;;;8.00;;
8333;SDS011;4204;43.004;23.052;2022-09-03T01:50:34;13.63;;;9.13;;
8333;SDS011;4204;43.004;23.052;2022-09-03T01:53:09;12.03;;;8.20;;
8333;SDS011;4204;43.004;23.052;2022-09-03T01:55:50;13.37;;;8.30;;
8333;SDS011;4204;43.004;23.052;2022-09-03T01:58:35;12.70;;;8.93;;
8333;SDS011;4204;43.004;23.052;2022-09-03T02:01:11;10.80;;;7.17;;
8333;SDS011;4204;43.004;23.052;2022-09-03T02:03:44;11.13;;;8.13;;
8333;SDS011;4204;43.004;23.052;2022-09-03T02:06:13;13.77;;;8.57;;
8333;SDS011;4204;43.004;23.052;2022-09-03T02:08:45;13.30;;;8.77;;
8333;SDS011;4204;43.004;23.052;2022-09-03T02:11:13;12.70;;;8.57;;
8333;SDS011;4204;43.004;23.052;2022-09-03T02:13:41;15.20;;;9.23;;
8333;SDS011;4204;43.004;23.052;2022-09-03T02:16:15;12.13;;;8.60;;
8333;SDS011;4204;43.004;23.052;2022-09-03T02:18:45;14.03;;;9.37;;
8333;SDS011;4204;43.004;23.052;2022-09-03T02:21:17;13.17;;;8.93;;
8333;SDS011;4204;43.004;23.052;2022-09-03T02:23:46;14.10;;;9.20;;
8333;SDS011;4204;43.004;23.052;2022-09-03T02:26:16;15.07;;;8.90;;
8333;SDS011;4204;43.004;23.052;2022-09-03T02:28:47;12.93;;;9.33;;
8333;SDS011;4204;43.004;23.052;2022-09-03T02:31:17;13.97;;;8.70;;
8333;SDS011;4204;43.004;23.052;2022-09-03T02:33:45;12.03;;;8.73;;
8333;SDS011;4204;43.004;23.052;2022-09-03T02:36:16;11.23;;;8.30;;
8333;SDS011;4204;43.004;23.052;2022-09-03T02:38:45;11.67;;;7.70;;
8333;SDS011;4204;43.004;23.052;2022-09-03T02:41:13;11.90;;;8.67;;
8333;SDS011;4204;43.004;23.052;2022-09-03T02:43:41;12.60;;;8.53;;
8333;SDS011;4204;43.004;23.052;2022-09-03T02:46:17;15.77;;;8.77;;
8333;SDS011;4204;43.004;23.052;2022-09-03T02:48:51;11.37;;;8.37;;
8333;SDS011;4204;43.004;23.052;2022-09-03T02:51:19;14.17;;;9.13;;
8333;SDS011;4204;43.004;23.052;2022-09-03T02:53:47;12.87;;;8.87;;
8333;SDS011;4204;43.004;23.052;2022-09-03T02:56:15;14.27;;;8.93;;
8333;SDS011;4204;43.004;23.052;2022-09-03T02:58:42;14.70;;;9.00;;
8333;SDS011;4204;43.004;23.052;2022-09-03T03:01:10;12.63;;;8.97;;
8333;SDS011;4204;43.004;23.052;2022-09-03T03:03:39;13.03;;;8.73;;
8333;SDS011;4204;43.004;23.052;2022-09-03T03:06:06;13.83;;;9.20;;
8333;SDS011;4204;43.004;23.052;2022-09-03T03:08:35;15.73;;;8.67;;
8333;SDS011;4204;43.004;23.052;2022-09-03T03:11:02;11.97;;;8.73;;
8333;SDS011;4204;43.004;23.052;2022-09-03T03:13:31;11.73;;;8.77;;
8333;SDS011;4204;43.004;23.052;2022-09-03T03:15:59;16.07;;;8.87;;
8333;SDS011;4204;43.004;23.052;2022-09-03T03:18:28;13.40;;;8.30;;
8333;SDS011;4204;43.004;23.052;2022-09-03T03:20:57;13.47;;;8.57;;
8333;SDS011;4204;43.004;23.052;2022-09-03T03:23:30;13.03;;;8.70;;
8333;SDS011;4204;43.004;23.052;2022-09-03T03:25:59;13.40;;;8.07;;
8333;SDS011;4204;43.004;23.052;2022-09-03T03:28:27;11.00;;;8.20;;
8333;SDS011;4204;43.004;23.052;2022-09-03T03:31:03;13.20;;;8.33;;
8333;SDS011;4204;43.004;23.052;2022-09-03T03:33:32;11.37;;;7.70;;
8333;SDS011;4204;43.004;23.052;2022-09-03T03:36:04;11.90;;;8.03;;
8333;SDS011;4204;43.004;23.052;2022-09-03T03:38:33;12.47;;;8.13;;
8333;SDS011;4204;43.004;23.052;2022-09-03T03:41:05;11.67;;;7.93;;
8333;SDS011;4204;43.004;23.052;2022-09-03T03:43:34;13.90;;;8.47;;
8333;SDS011;4204;43.004;23.052;2022-09-03T03:46:01;10.57;;;8.10;;
8333;SDS011;4204;43.004;23.052;2022-09-03T03:48:30;11.70;;;7.80;;
8333;SDS011;4204;43.004;23.052;2022-09-03T03:50:59;14.00;;;9.07;;
8333;SDS011;4204;43.004;23.052;2022-09-03T03:53:30;13.30;;;7.83;;
8333;SDS011;4204;43.004;23.052;2022-09-03T03:55:59;13.13;;;8.53;;
8333;SDS011;4204;43.004;23.052;2022-09-03T03:58:28;13.10;;;8.50;;
8333;SDS011;4204;43.004;23.052;2022-09-03T04:01:02;14.43;;;8.73;;
8333;SDS011;4204;43.004;23.052;2022-09-03T04:03:31;13.87;;;8.40;;
8333;SDS011;4204;43.004;23.052;2022-09-03T04:05:59;12.03;;;8.60;;
8333;SDS011;4204;43.004;23.052;2022-09-03T04:08:28;13.53;;;8.73;;
8333;SDS011;4204;43.004;23.052;2022-09-03T04:10:59;13.43;;;8.83;;
8333;SDS011;4204;43.004;23.052;2022-09-03T04:13:28;12.73;;;8.47;;
8333;SDS011;4204;43.004;23.052;2022-09-03T04:16:00;12.57;;;8.03;;
8333;SDS011;4204;43.004;23.052;2022-09-03T04:18:29;12.13;;;8.90;;
8333;SDS011;4204;43.004;23.052;2022-09-03T04:20:58;14.27;;;8.63;;
8333;SDS011;4204;43.004;23.052;2022-09-03T04:23:29;13.97;;;8.97;;
8333;SDS011;4204;43.004;23.052;2022-09-03T04:25:59;12.67;;;8.80;;
8333;SDS011;4204;43.004;23.052;2022-09-03T04:28:27;14.90;;;10.03;;
8333;SDS011;4204;43.004;23.052;2022-09-03T04:30:59;15.43;;;8.57;;
8333;SDS011;4204;43.004;23.052;2022-09-03T04:33:27;13.73;;;9.03;;
8333;SDS011;4204;43.004;23.052;2022-09-03T04:36:00;15.13;;;9.57;;
8333;SDS011;4204;43.004;23.052;2022-09-03T04:38:30;15.80;;;8.87;;
8333;SDS011;4204;43.004;23.052;2022-09-03T04:41:00;15.40;;;8.83;;
8333;SDS011;4204;43.004;23.052;2022-09-03T04:43:27;21.93;;;13.93;;
8333;SDS011;4204;43.004;23.052;2022-09-03T04:45:56;17.97;;;10.20;;
8333;SDS011;4204;43.004;23.052;2022-09-03T04:48:25;15.27;;;9.87;;
8333;SDS011;4204;43.004;23.052;2022-09-03T04:50:53;15.07;;;9.57;;
8333;SDS011;4204;43.004;23.052;2022-09-03T04:53:21;14.60;;;9.80;;
8333;SDS011;4204;43.004;23.052;2022-09-03T04:55:48;14.37;;;10.00;;
8333;SDS011;4204;43.004;23.052;2022-09-03T04:58:17;15.17;;;9.50;;
8333;SDS011;4204;43.004;23.052;2022-09-03T05:00:45;16.57;;;10.40;;
8333;SDS011;4204;43.004;23.052;2022-09-03T05:03:13;17.67;;;9.73;;
8333;SDS011;4204;43.004;23.052;2022-09-03T05:05:41;14.17;;;9.37;;
8333;SDS011;4204;43.004;23.052;2022-09-03T05:08:08;15.10;;;9.60;;
8333;SDS011;4204;43.004;23.052;2022-09-03T05:10:36;13.97;;;8.87;;
8333;SDS011;4204;43.004;23.052;2022-09-03T05:13:04;16.20;;;9.90;;
8333;SDS011;4204;43.004;23.052;2022-09-03T05:15:33;14.50;;;9.50;;
8333;SDS011;4204;43.004;23.052;2022-09-03T05:18:02;15.20;;;9.70;;
8333;SDS011;4204;43.004;23.052;2022-09-03T05:20:29;15.40;;;9.57;;
8333;SDS011;4204;43.004;23.052;2022-09-03T05:23:00;13.70;;;9.07;;
8333;SDS011;4204;43.004;23.052;2022-09-03T05:25:28;15.40;;;9.27;;
8333;SDS011;4204;43.004;23.052;2022-09-03T05:28:34;12.90;;;8.37;;
8333;SDS011;4204;43.004;23.052;2022-09-03T05:31:03;12.73;;;8.37;;
8333;SDS011;4204;43.004;23.052;2022-09-03T05:33:33;13.07;;;7.90;;
8333;SDS011;4204;43.004;23.052;2022-09-03T05:36:01;11.63;;;7.90;;
8333;SDS011;4204;43.004;23.052;2022-09-03T05:38:30;12.93;;;8.53;;
8333;SDS011;4204;43.004;23.052;2022-09-03T05:40:58;15.20;;;8.00;;
8333;SDS011;4204;43.004;23.052;2022-09-03T06:20:19;12.80;;;8.33;;
8333;SDS011;4204;43.004;23.052;2022-09-03T06:22:47;14.07;;;9.63;;
8333;SDS011;4204;43.004;23.052;2022-09-03T06:25:17;13.00;;;8.10;;
8333;SDS011;4204;43.004;23.052;2022-09-03T06:27:45;12.70;;;8.53;;
8333;SDS011;4204;43.004;23.052;2022-09-03T06:30:14;12.67;;;7.53;;
8333;SDS011;4204;43.004;23.052;2022-09-03T06:32:43;10.57;;;7.47;;
8333;SDS011;4204;43.004;23.052;2022-09-03T06:35:14;15.23;;;9.77;;
8333;SDS011;4204;43.004;23.052;2022-09-03T06:37:42;15.83;;;10.20;;
8333;SDS011;4204;43.004;23.052;2022-09-03T06:40:10;11.60;;;7.90;;
8333;SDS011;4204;43.004;23.052;2022-09-03T06:42:39;12.20;;;8.20;;
8333;SDS011;4204;43.004;23.052;2022-09-03T06:45:07;17.70;;;10.80;;
8333;SDS011;4204;43.004;23.052;2022-09-03T06:47:36;12.13;;;8.83;;
8333;SDS011;4204;43.004;23.052;2022-09-03T06:50:04;13.03;;;9.33;;
8333;SDS011;4204;43.004;23.052;2022-09-03T06:52:34;12.63;;;8.53;;
8333;SDS011;4204;43.004;23.052;2022-09-03T06:55:02;13.60;;;9.83;;
8333;SDS011;4204;43.004;23.052;2022-09-03T06:57:30;11.97;;;8.40;;
8333;SDS011;4204;43.004;23.052;2022-09-03T06:59:57;12.83;;;8.53;;
8333;SDS011;4204;43.004;23.052;2022-09-03T07:02:26;11.63;;;8.33;;
8333;SDS011;4204;43.004;23.052;2022-09-03T07:04:54;12.80;;;8.30;;
8333;SDS011;4204;43.004;23.052;2022-09-03T07:07:22;13.23;;;8.27;;
8333;SDS011;4204;43.004;23.052;2022-09-03T07:09:51;15.67;;;9.40;;
8333;SDS011;4204;43.004;23.052;2022-09-03T07:12:18;15.63;;;10.27;;
8333;SDS011;4204;43.004;23.052;2022-09-03T07:14:46;21.20;;;16.10;;
8333;SDS011;4204;43.004;23.052;2022-09-03T07:17:14;17.10;;;11.90;;
8333;SDS011;4204;43.004;23.052;2022-09-03T07:19:41;13.10;;;9.13;;
8333;SDS011;4204;43.004;23.052;2022-09-03T07:22:09;10.37;;;7.10;;
8333;SDS011;4204;43.004;23.052;2022-09-03T07:24:37;11.97;;;8.53;;
8333;SDS011;4204;43.004;23.052;2022-09-03T07:27:06;16.03;;;12.40;;
8333;SDS011;4204;43.004;23.052;2022-09-03T07:29:34;10.03;;;7.80;;
8333;SDS011;4204;43.004;23.052;2022-09-03T07:32:02;9.80;;;7.57;;
8333;SDS011;4204;43.004;23.052;2022-09-03T07:34:30;10.70;;;8.20;;
8333;SDS011;4204;43.004;23.052;2022-09-03T07:37:00;9.70;;;6.67;;
8333;SDS011;4204;43.004;23.052;2022-09-03T07:39:30;14.80;;;11.00;;
8333;SDS011;4204;43.004;23.052;2022-09-03T07:41:59;16.97;;;11.80;;
8333;SDS011;4204;43.004;23.052;2022-09-03T07:44:28;13.47;;;10.53;;
8333;SDS011;4204;43.004;23.052;2022-09-03T07:46:56;11.87;;;8.37;;
8333;SDS011;4204;43.004;23.052;2022-09-03T07:49:24;10.60;;;8.17;;
8333;SDS011;4204;43.004;23.052;2022-09-03T07:51:51;10.17;;;8.00;;
8333;SDS011;4204;43.004;23.052;2022-09-03T07:54:19;13.80;;;9.13;;
8333;SDS011;4204;43.004;23.052;2022-09-03T07:56:48;10.03;;;8.07;;
8333;SDS011;4204;43.004;23.052;2022-09-03T07:59:16;11.60;;;7.87;;
8333;SDS011;4204;43.004;23.052;2022-09-03T08:01:45;11.30;;;8.20;;
8333;SDS011;4204;43.004;23.052;2022-09-03T08:04:13;11.43;;;8.03;;
8333;SDS011;4204;43.004;23.052;2022-09-03T08:06:41;12.10;;;8.97;;
8333;SDS011;4204;43.004;23.052;2022-09-03T08:09:09;11.93;;;8.77;;
8333;SDS011;4204;43.004;23.052;2022-09-03T08:11:40;12.57;;;8.93;;
8333;SDS011;4204;43.004;23.052;2022-09-03T08:14:09;11.70;;;8.77;;
8333;SDS011;4204;43.004;23.052;2022-09-03T08:16:39;12.00;;;8.73;;
8333;SDS011;4204;43.004;23.052;2022-09-03T08:19:10;14.17;;;9.07;;
8333;SDS011;4204;43.004;23.052;2022-09-03T08:21:38;12.00;;;8.53;;
8333;SDS011;4204;43.004;23.052;2022-09-03T08:24:06;12.13;;;9.03;;
8333;SDS011;4204;43.004;23.052;2022-09-03T08:26:35;11.87;;;8.10;;
8333;SDS011;4204;43.004;23.052;2022-09-03T08:29:04;11.17;;;8.23;;
8333;SDS011;4204;43.004;23.052;2022-09-03T08:33:46;12.17;;;8.73;;
8333;SDS011;4204;43.004;23.052;2022-09-03T08:36:16;12.63;;;8.67;;
8333;SDS011;4204;43.004;23.052;2022-09-03T08:38:46;12.13;;;8.77;;
8333;SDS011;4204;43.004;23.052;2022-09-03T08:41:15;11.90;;;8.13;;
8333;SDS011;4204;43.004;23.052;2022-09-03T08:43:51;11.47;;;8.63;;
8333;SDS011;4204;43.004;23.052;2022-09-03T08:46:31;13.87;;;9.13;;
8333;SDS011;4204;43.004;23.052;2022-09-03T08:49:17;12.90;;;8.80;;
8333;SDS011;4204;43.004;23.052;2022-09-03T08:51:51;13.40;;;9.07;;
8333;SDS011;4204;43.004;23.052;2022-09-03T08:54:23;12.50;;;8.63;;
8333;SDS011;4204;43.004;23.052;2022-09-03T08:56:53;12.97;;;9.53;;
8333;SDS011;4204;43.004;23.052;2022-09-03T08:59:25;13.90;;;9.97;;
8333;SDS011;4204;43.004;23.052;2022-09-03T09:01:54;14.97;;;9.73;;
8333;SDS011;4204;43.004;23.052;2022-09-03T09:04:31;14.50;;;9.43;;
8333;SDS011;4204;43.004;23.052;2022-09-03T09:07:16;13.77;;;8.90;;
8333;SDS011;4204;43.004;23.052;2022-09-03T09:09:49;12.27;;;8.53;;
8333;SDS011;4204;43.004;23.052;2022-09-03T09:12:28;12.70;;;9.00;;
8333;SDS011;4204;43.004;23.052;2022-09-03T09:15:07;12.40;;;9.30;;
8333;SDS011;4204;43.004;23.052;2022-09-03T09:17:48;15.43;;;9.67;;
8333;SDS011;4204;43.004;23.052;2022-09-03T09:20:28;12.20;;;9.03;;
8333;SDS011;4204;43.004;23.052;2022-09-03T09:23:03;15.60;;;9.83;;
8333;SDS011;4204;43.004;23.052;2022-09-03T09:25:32;13.17;;;9.77;;
8333;SDS011;4204;43.004;23.052;2022-09-03T09:28:07;14.80;;;9.97;;
8333;SDS011;4204;43.004;23.052;2022-09-03T09:30:40;12.00;;;8.97;;
8333;SDS011;4204;43.004;23.052;2022-09-03T09:33:09;12.93;;;8.93;;
8333;SDS011;4204;43.004;23.052;2022-09-03T09:35:38;13.80;;;9.70;;
8333;SDS011;4204;43.004;23.052;2022-09-03T09:38:08;14.87;;;10.00;;
8333;SDS011;4204;43.004;23.052;2022-09-03T09:40:38;14.07;;;10.13;;
8333;SDS011;4204;43.004;23.052;2022-09-03T09:43:09;12.93;;;8.60;;
8333;SDS011;4204;43.004;23.052;2022-09-03T09:45:40;13.17;;;9.60;;
8333;SDS011;4204;43.004;23.052;2022-09-03T09:48:12;12.20;;;8.53;;
8333;SDS011;4204;43.004;23.052;2022-09-03T09:50:48;10.40;;;7.63;;
8333;SDS011;4204;43.004;23.052;2022-09-03T09:53:16;11.40;;;7.90;;
8333;SDS011;4204;43.004;23.052;2022-09-03T09:55:50;13.10;;;9.13;;
8333;SDS011;4204;43.004;23.052;2022-09-03T09:58:20;16.27;;;11.13;;
8333;SDS011;4204;43.004;23.052;2022-09-03T10:01:02;12.87;;;9.17;;
8333;SDS011;4204;43.004;23.052;2022-09-03T10:03:39;11.30;;;8.50;;
8333;SDS011;4204;43.004;23.052;2022-09-03T10:06:15;13.63;;;9.10;;
8333;SDS011;4204;43.004;23.052;2022-09-03T10:09:04;13.60;;;9.70;;
8333;SDS011;4204;43.004;23.052;2022-09-03T10:11:33;11.07;;;8.73;;
8333;SDS011;4204;43.004;23.052;2022-09-03T10:14:03;10.67;;;9.00;;
8333;SDS011;4204;43.004;23.052;2022-09-03T10:16:38;12.17;;;8.97;;
8333;SDS011;4204;43.004;23.052;2022-09-03T10:19:17;11.13;;;9.03;;
8333;SDS011;4204;43.004;23.052;2022-09-03T10:21:50;11.93;;;8.80;;
8333;SDS011;4204;43.004;23.052;2022-09-03T10:24:31;12.30;;;8.93;;
8333;SDS011;4204;43.004;23.052;2022-09-03T10:27:07;12.00;;;9.30;;
8333;SDS011;4204;43.004;23.052;2022-09-03T10:29:37;12.70;;;8.97;;
8333;SDS011;4204;43.004;23.052;2022-09-03T10:32:10;10.20;;;8.10;;
8333;SDS011;4204;43.004;23.052;2022-09-03T10:34:49;12.57;;;9.10;;
8333;SDS011;4204;43.004;23.052;2022-09-03T10:37:31;12.53;;;9.90;;
8333;SDS011;4204;43.004;23.052;2022-09-03T10:40:11;12.77;;;9.50;;
8333;SDS011;4204;43.004;23.052;2022-09-03T10:42:52;13.27;;;9.10;;
8333;SDS011;4204;43.004;23.052;2022-09-03T10:45:34;11.77;;;8.87;;
8333;SDS011;4204;43.004;23.052;2022-09-03T10:48:32;15.37;;;8.27;;
8333;SDS011;4204;43.004;23.052;2022-09-03T10:51:19;10.53;;;8.17;;
8333;SDS011;4204;43.004;23.052;2022-09-03T10:53:57;11.10;;;8.10;;
8333;SDS011;4204;43.004;23.052;2022-09-03T10:56:44;12.63;;;8.77;;
8333;SDS011;4204;43.004;23.052;2022-09-03T10:59:24;12.27;;;8.63;;
8333;SDS011;4204;43.004;23.052;2022-09-03T11:02:06;8.97;;;7.30;;
8333;SDS011;4204;43.004;23.052;2022-09-03T11:04:57;9.57;;;7.50;;
8333;SDS011;4204;43.004;23.052;2022-09-03T11:07:31;9.80;;;8.17;;
8333;SDS011;4204;43.004;23.052;2022-09-03T11:10:09;9.27;;;7.53;;
8333;SDS011;4204;43.004;23.052;2022-09-03T11:12:42;10.27;;;7.20;;
8333;SDS011;4204;43.004;23.052;2022-09-03T11:15:14;9.90;;;7.37;;
8333;SDS011;4204;43.004;23.052;2022-09-03T11:17:51;9.50;;;7.20;;
8333;SDS011;4204;43.004;23.052;2022-09-03T11:20:27;10.00;;;7.13;;
8333;SDS011;4204;43.004;23.052;2022-09-03T11:22:56;11.63;;;7.53;;
8333;SDS011;4204;43.004;23.052;2022-09-03T11:25:29;8.63;;;7.00;;
8333;SDS011;4204;43.004;23.052;2022-09-03T11:28:02;6.97;;;6.13;;
8333;SDS011;4204;43.004;23.052;2022-09-03T11:30:43;7.80;;;6.10;;
8333;SDS011;4204;43.004;23.052;2022-09-03T11:33:22;7.57;;;6.23;;
8333;SDS011;4204;43.004;23.052;2022-09-03T11:35:55;8.93;;;6.73;;
8333;SDS011;4204;43.004;23.052;2022-09-03T11:38:25;8.80;;;7.20;;
8333;SDS011;4204;43.004;23.052;2022-09-03T11:40:59;9.43;;;6.93;;
8333;SDS011;4204;43.004;23.052;2022-09-03T11:43:30;8.60;;;7.40;;
8333;SDS011;4204;43.004;23.052;2022-09-03T11:46:01;9.87;;;6.90;;
8333;SDS011;4204;43.004;23.052;2022-09-03T11:48:52;8.33;;;7.07;;
8333;SDS011;4204;43.004;23.052;2022-09-03T11:51:31;9.63;;;7.10;;
8333;SDS011;4204;43.004;23.052;2022-09-03T11:54:03;8.30;;;6.73;;
8333;SDS011;4204;43.004;23.052;2022-09-03T11:56:34;7.93;;;6.70;;
8333;SDS011;4204;43.004;23.052;2022-09-03T11:59:14;9.93;;;7.17;;
8333;SDS011;4204;43.004;23.052;2022-09-03T12:01:46;7.83;;;6.30;;
8333;SDS011;4204;43.004;23.052;2022-09-03T12:04:19;9.57;;;6.83;;
8333;SDS011;4204;43.004;23.052;2022-09-03T12:07:01;8.67;;;6.80;;
8333;SDS011;4204;43.004;23.052;2022-09-03T12:09:50;8.23;;;6.50;;
8333;SDS011;4204;43.004;23.052;2022-09-03T12:12:38;8.10;;;6.47;;
8333;SDS011;4204;43.004;23.052;2022-09-03T12:15:20;7.37;;;6.10;;
8333;SDS011;4204;43.004;23.052;2022-09-03T12:18:15;7.20;;;5.90;;
8333;SDS011;4204;43.004;23.052;2022-09-03T12:20:59;7.57;;;6.10;;
8333;SDS011;4204;43.004;23.052;2022-09-03T12:23:30;6.73;;;5.93;;
8333;SDS011;4204;43.004;23.052;2022-09-03T12:26:00;7.40;;;6.37;;
8333;SDS011;4204;43.004;23.052;2022-09-03T12:28:35;6.67;;;5.83;;
8333;SDS011;4204;43.004;23.052;2022-09-03T12:31:07;6.90;;;5.97;;
8333;SDS011;4204;43.004;23.052;2022-09-03T12:33:46;7.27;;;5.77;;
8333;SDS011;4204;43.004;23.052;2022-09-03T12:36:14;7.77;;;6.57;;
8333;SDS011;4204;43.004;23.052;2022-09-03T12:38:42;6.30;;;5.30;;
8333;SDS011;4204;43.004;23.052;2022-09-03T12:41:19;7.07;;;6.10;;
8333;SDS011;4204;43.004;23.052;2022-09-03T12:43:53;6.43;;;5.80;;
8333;SDS011;4204;43.004;23.052;2022-09-03T12:46:23;7.07;;;6.10;;
8333;SDS011;4204;43.004;23.052;2022-09-03T12:48:53;7.50;;;6.17;;
8333;SDS011;4204;43.004;23.052;2022-09-03T12:51:32;7.83;;;6.43;;
8333;SDS011;4204;43.004;23.052;2022-09-03T12:54:03;7.53;;;6.07;;
8333;SDS011;4204;43.004;23.052;2022-09-03T12:56:34;6.30;;;5.57;;
8333;SDS011;4204;43.004;23.052;2022-09-03T12:59:06;6.47;;;5.50;;
8333;SDS011;4204;43.004;23.052;2022-09-03T13:01:39;6.80;;;5.87;;
8333;SDS011;4204;43.004;23.052;2022-09-03T13:04:15;5.63;;;4.67;;
8333;SDS011;4204;43.004;23.052;2022-09-03T13:06:46;4.30;;;3.90;;
8333;SDS011;4204;43.004;23.052;2022-09-03T13:09:21;3.73;;;3.20;;
8333;SDS011;4204;43.004;23.052;2022-09-03T13:11:51;4.17;;;2.53;;
8333;SDS011;4204;43.004;23.052;2022-09-03T13:14:21;3.17;;;2.50;;
8333;SDS011;4204;43.004;23.052;2022-09-03T13:16:52;2.50;;;2.30;;
8333;SDS011;4204;43.004;23.052;2022-09-03T13:19:44;3.90;;;2.77;;
8333;SDS011;4204;43.004;23.052;2022-09-03T13:22:24;2.63;;;2.37;;
8333;SDS011;4204;43.004;23.052;2022-09-03T13:25:13;4.23;;;2.87;;
8333;SDS011;4204;43.004;23.052;2022-09-03T13:27:51;2.57;;;2.37;;
8333;SDS011;4204;43.004;23.052;2022-09-03T13:30:30;6.70;;;2.60;;
8333;SDS011;4204;43.004;23.052;2022-09-03T13:33:04;3.50;;;3.20;;
8333;SDS011;4204;43.004;23.052;2022-09-03T13:35:43;3.17;;;2.87;;
8333;SDS011;4204;43.004;23.052;2022-09-03T13:38:19;3.80;;;3.10;;
8333;SDS011;4204;43.004;23.052;2022-09-03T13:40:53;3.17;;;2.87;;
8333;SDS011;4204;43.004;23.052;2022-09-03T13:43:27;3.13;;;2.63;;
8333;SDS011;4204;43.004;23.052;2022-09-03T13:46:02;2.83;;;2.63;;
8333;SDS011;4204;43.004;23.052;2022-09-03T13:48:34;3.70;;;3.30;;
8333;SDS011;4204;43.004;23.052;2022-09-03T13:51:23;4.77;;;4.23;;
8333;SDS011;4204;43.004;23.052;2022-09-03T13:54:00;4.30;;;3.90;;
8333;SDS011;4204;43.004;23.052;2022-09-03T13:56:43;4.27;;;3.67;;
8333;SDS011;4204;43.004;23.052;2022-09-03T13:59:24;5.67;;;4.30;;
8333;SDS011;4204;43.004;23.052;2022-09-03T14:02:04;4.33;;;3.93;;
8333;SDS011;4204;43.004;23.052;2022-09-03T14:04:43;7.00;;;4.57;;
8333;SDS011;4204;43.004;23.052;2022-09-03T14:07:23;4.57;;;3.90;;
8333;SDS011;4204;43.004;23.052;2022-09-03T14:09:57;8.23;;;6.13;;
8333;SDS011;4204;43.004;23.052;2022-09-03T14:12:35;6.27;;;5.33;;
8333;SDS011;4204;43.004;23.052;2022-09-03T14:15:09;4.33;;;3.93;;
8333;SDS011;4204;43.004;23.052;2022-09-03T14:17:47;5.10;;;4.53;;
8333;SDS011;4204;43.004;23.052;2022-09-03T14:20:23;11.00;;;8.30;;
8333;SDS011;4204;43.004;23.052;2022-09-03T14:22:55;5.60;;;4.80;;
8333;SDS011;4204;43.004;23.052;2022-09-03T14:25:29;10.33;;;8.37;;
8333;SDS011;4204;43.004;23.052;2022-09-03T14:28:11;9.60;;;5.90;;
8333;SDS011;4204;43.004;23.052;2022-09-03T14:30:42;8.60;;;4.40;;
8333;SDS011;4204;43.004;23.052;2022-09-03T14:33:19;5.43;;;3.60;;
8333;SDS011;4204;43.004;23.052;2022-09-03T14:35:55;4.33;;;3.40;;
8333;SDS011;4204;43.004;23.052;2022-09-03T14:38:44;4.40;;;3.47;;
8333;SDS011;4204;43.004;23.052;2022-09-03T14:41:36;3.53;;;3.23;;
8333;SDS011;4204;43.004;23.052;2022-09-03T14:47:18;4.13;;;3.70;;
8333;SDS011;4204;43.004;23.052;2022-09-03T14:50:04;4.07;;;3.40;;
8333;SDS011;4204;43.004;23.052;2022-09-03T14:55:44;4.37;;;3.30;;
8333;SDS011;4204;43.004;23.052;2022-09-03T14:58:42;3.70;;;3.10;;
8333;SDS011;4204;43.004;23.052;2022-09-03T15:01:28;3.70;;;3.10;;
8333;SDS011;4204;43.004;23.052;2022-09-03T15:04:05;3.23;;;2.93;;
8333;SDS011;4204;43.004;23.052;2022-09-03T15:07:00;3.20;;;2.80;;
8333;SDS011;4204;43.004;23.052;2022-09-03T15:09:45;3.10;;;2.80;;
8333;SDS011;4204;43.004;23.052;2022-09-03T15:12:21;4.23;;;3.30;;
8333;SDS011;4204;43.004;23.052;2022-09-03T15:14:56;5.93;;;4.00;;
8333;SDS011;4204;43.004;23.052;2022-09-03T15:20:29;4.27;;;3.23;;
8333;SDS011;4204;43.004;23.052;2022-09-03T15:23:11;5.80;;;3.40;;
8333;SDS011;4204;43.004;23.052;2022-09-03T15:26:08;4.03;;;3.63;;
8333;SDS011;4204;43.004;23.052;2022-09-03T15:29:10;12.23;;;4.20;;
8333;SDS011;4204;43.004;23.052;2022-09-03T15:31:50;5.53;;;3.57;;
8333;SDS011;4204;43.004;23.052;2022-09-03T15:34:34;6.90;;;3.77;;
8333;SDS011;4204;43.004;23.052;2022-09-03T15:37:12;5.67;;;3.80;;
8333;SDS011;4204;43.004;23.052;2022-09-03T15:39:52;12.63;;;4.00;;
8333;SDS011;4204;43.004;23.052;2022-09-03T15:42:26;18.30;;;5.33;;
8333;SDS011;4204;43.004;23.052;2022-09-03T15:44:59;5.60;;;4.10;;
8333;SDS011;4204;43.004;23.052;2022-09-03T15:47:31;6.47;;;3.87;;
8333;SDS011;4204;43.004;23.052;2022-09-03T15:50:14;4.20;;;3.80;;
8333;SDS011;4204;43.004;23.052;2022-09-03T15:52:54;6.03;;;4.23;;
8333;SDS011;4204;43.004;23.052;2022-09-03T15:55:31;6.20;;;4.03;;
8333;SDS011;4204;43.004;23.052;2022-09-03T15:58:04;7.23;;;4.23;;
8333;SDS011;4204;43.004;23.052;2022-09-03T16:00:50;5.50;;;4.10;;
8333;SDS011;4204;43.004;23.052;2022-09-03T16:03:32;8.93;;;4.63;;
8333;SDS011;4204;43.004;23.052;2022-09-03T16:06:16;6.90;;;4.30;;
8333;SDS011;4204;43.004;23.052;2022-09-03T16:08:51;5.53;;;4.53;;
8333;SDS011;4204;43.004;23.052;2022-09-03T16:11:32;6.87;;;4.47;;
8333;SDS011;4204;43.004;23.052;2022-09-03T16:14:06;6.27;;;5.27;;
8333;SDS011;4204;43.004;23.052;2022-09-03T16:16:46;6.10;;;4.63;;
8333;SDS011;4204;43.004;23.052;2022-09-03T16:19:25;6.57;;;4.70;;
8333;SDS011;4204;43.004;23.052;2022-09-03T16:21:57;7.10;;;4.67;;
8333;SDS011;4204;43.004;23.052;2022-09-03T16:24:29;5.67;;;4.50;;
8333;SDS011;4204;43.004;23.052;2022-09-03T16:27:06;6.23;;;5.00;;